sensor_id;sensor_type;location;lat;lon;timestamp;P1;durP1;ratioP1;P2;durP2;ratioP2
32780;SDS011;19136;47.032;15.502;2023-04-25T00:01:20;9.50;;;4.22;;
32780;SDS011;19136;47.032;15.502;2023-04-25T00:03:47;9.80;;;4.47;;
32780;SDS011;19136;47.032;15.502;2023-04-25T00:06:13;8.82;;;4.57;;
32780;SDS011;19136;47.032;15.502;2023-04-25T00:08:38;5.18;;;3.88;;
32780;SDS011;19136;47.032;15.502;2023-04-25T00:11:04;7.28;;;4.32;;
32780;SDS011;19136;47.032;15.502;2023-04-25T00:13:30;7.75;;;4.72;;
32780;SDS011;19136;47.032;15.502;2023-04-25T00:15:57;9.18;;;4.47;;
32780;SDS011;19136;47.032;15.502;2023-04-25T00:18:23;6.18;;;4.30;;
32780;SDS011;19136;47.032;15.502;2023-04-25T00:20:49;10.35;;;4.50;;
32780;SDS011;19136;47.032;15.502;2023-04-25T00:23:15;9.23;;;4.15;;
32780;SDS011;19136;47.032;15.502;2023-04-25T00:25:46;10.60;;;5.05;;
32780;SDS011;19136;47.032;15.502;2023-04-25T00:28:15;10.10;;;4.10;;
32780;SDS011;19136;47.032;15.502;2023-04-25T00:30:41;11.40;;;4.60;;
32780;SDS011;19136;47.032;15.502;2023-04-25T00:33:07;8.43;;;4.43;;
32780;SDS011;19136;47.032;15.502;2023-04-25T00:35:34;13.20;;;5.30;;
32780;SDS011;19136;47.032;15.502;2023-04-25T00:38:00;8.38;;;5.00;;
32780;SDS011;19136;47.032;15.502;2023-04-25T00:40:26;11.73;;;4.55;;
32780;SDS011;19136;47.032;15.502;2023-04-25T00:42:52;14.35;;;4.95;;
32780;SDS011;19136;47.032;15.502;2023-04-25T00:45:18;8.13;;;5.18;;
32780;SDS011;19136;47.032;15.502;2023-04-25T00:47:44;11.40;;;4.78;;
32780;SDS011;19136;47.032;15.502;2023-04-25T00:50:10;9.32;;;4.10;;
32780;SDS011;19136;47.032;15.502;2023-04-25T00:52:40;8.55;;;3.95;;
32780;SDS011;19136;47.032;15.502;2023-04-25T00:55:22;11.20;;;5.53;;
32780;SDS011;19136;47.032;15.502;2023-04-25T00:57:48;7.53;;;4.68;;
32780;SDS011;19136;47.032;15.502;2023-04-25T01:00:14;15.30;;;3.92;;
32780;SDS011;19136;47.032;15.502;2023-04-25T01:02:40;12.57;;;4.85;;
32780;SDS011;19136;47.032;15.502;2023-04-25T01:05:07;6.60;;;3.72;;
32780;SDS011;19136;47.032;15.502;2023-04-25T01:07:34;9.07;;;4.43;;
32780;SDS011;19136;47.032;15.502;2023-04-25T01:10:01;8.80;;;3.85;;
32780;SDS011;19136;47.032;15.502;2023-04-25T01:12:26;14.35;;;4.65;;
32780;SDS011;19136;47.032;15.502;2023-04-25T01:14:52;7.30;;;4.10;;
32780;SDS011;19136;47.032;15.502;2023-04-25T01:17:18;8.45;;;3.85;;
32780;SDS011;19136;47.032;15.502;2023-04-25T01:19:44;9.60;;;4.30;;
32780;SDS011;19136;47.032;15.502;2023-04-25T01:22:12;12.30;;;4.82;;
32780;SDS011;19136;47.032;15.502;2023-04-25T01:24:42;6.80;;;4.18;;
32780;SDS011;19136;47.032;15.502;2023-04-25T01:27:08;12.68;;;4.20;;
32780;SDS011;19136;47.032;15.502;2023-04-25T01:29:35;8.20;;;4.75;;
32780;SDS011;19136;47.032;15.502;2023-04-25T01:32:04;10.60;;;4.15;;
32780;SDS011;19136;47.032;15.502;2023-04-25T01:34:31;5.80;;;3.88;;
32780;SDS011;19136;47.032;15.502;2023-04-25T01:36:57;6.85;;;3.90;;
32780;SDS011;19136;47.032;15.502;2023-04-25T01:39:24;8.85;;;3.72;;
32780;SDS011;19136;47.032;15.502;2023-04-25T01:41:50;12.63;;;3.78;;
32780;SDS011;19136;47.032;15.502;2023-04-25T01:44:16;7.07;;;3.55;;
32780;SDS011;19136;47.032;15.502;2023-04-25T01:46:42;7.70;;;4.00;;
32780;SDS011;19136;47.032;15.502;2023-04-25T01:49:07;9.70;;;4.13;;
32780;SDS011;19136;47.032;15.502;2023-04-25T01:51:34;5.78;;;3.22;;
32780;SDS011;19136;47.032;15.502;2023-04-25T01:54:00;7.50;;;3.72;;
32780;SDS011;19136;47.032;15.502;2023-04-25T01:56:29;6.53;;;3.65;;
32780;SDS011;19136;47.032;15.502;2023-04-25T01:58:56;8.52;;;3.65;;
32780;SDS011;19136;47.032;15.502;2023-04-25T02:01:37;7.13;;;3.72;;
32780;SDS011;19136;47.032;15.502;2023-04-25T02:04:17;11.75;;;4.35;;
32780;SDS011;19136;47.032;15.502;2023-04-25T02:06:43;16.35;;;4.40;;
32780;SDS011;19136;47.032;15.502;2023-04-25T02:09:09;11.52;;;3.55;;
32780;SDS011;19136;47.032;15.502;2023-04-25T02:11:39;10.57;;;4.30;;
32780;SDS011;19136;47.032;15.502;2023-04-25T02:14:28;10.07;;;3.90;;
32780;SDS011;19136;47.032;15.502;2023-04-25T02:17:09;8.38;;;4.20;;
32780;SDS011;19136;47.032;15.502;2023-04-25T02:19:35;8.93;;;3.55;;
32780;SDS011;19136;47.032;15.502;2023-04-25T02:22:01;7.03;;;3.83;;
32780;SDS011;19136;47.032;15.502;2023-04-25T02:24:26;10.93;;;4.22;;
32780;SDS011;19136;47.032;15.502;2023-04-25T02:26:54;8.23;;;4.20;;
32780;SDS011;19136;47.032;15.502;2023-04-25T02:29:21;10.43;;;4.80;;
32780;SDS011;19136;47.032;15.502;2023-04-25T02:31:47;7.65;;;4.13;;
32780;SDS011;19136;47.032;15.502;2023-04-25T02:34:12;10.20;;;4.68;;
32780;SDS011;19136;47.032;15.502;2023-04-25T02:36:38;7.38;;;4.45;;
32780;SDS011;19136;47.032;15.502;2023-04-25T02:39:03;15.20;;;5.05;;
32780;SDS011;19136;47.032;15.502;2023-04-25T02:41:30;6.22;;;4.18;;
32780;SDS011;19136;47.032;15.502;2023-04-25T02:43:55;9.38;;;4.43;;
32780;SDS011;19136;47.032;15.502;2023-04-25T02:46:21;6.60;;;4.43;;
32780;SDS011;19136;47.032;15.502;2023-04-25T02:48:46;11.73;;;4.50;;
32780;SDS011;19136;47.032;15.502;2023-04-25T02:51:12;15.23;;;6.43;;
32780;SDS011;19136;47.032;15.502;2023-04-25T02:53:38;14.60;;;5.93;;
32780;SDS011;19136;47.032;15.502;2023-04-25T02:56:04;19.52;;;5.40;;
32780;SDS011;19136;47.032;15.502;2023-04-25T02:58:29;14.27;;;6.05;;
32780;SDS011;19136;47.032;15.502;2023-04-25T03:00:55;13.02;;;5.57;;
32780;SDS011;19136;47.032;15.502;2023-04-25T03:03:21;9.95;;;5.13;;
32780;SDS011;19136;47.032;15.502;2023-04-25T03:05:48;12.80;;;6.20;;
32780;SDS011;19136;47.032;15.502;2023-04-25T03:08:17;15.23;;;6.07;;
32780;SDS011;19136;47.032;15.502;2023-04-25T03:10:44;15.02;;;6.90;;
32780;SDS011;19136;47.032;15.502;2023-04-25T03:13:10;11.05;;;5.85;;
32780;SDS011;19136;47.032;15.502;2023-04-25T03:15:37;9.07;;;5.03;;
32780;SDS011;19136;47.032;15.502;2023-04-25T03:18:03;9.43;;;5.78;;
32780;SDS011;19136;47.032;15.502;2023-04-25T03:20:29;14.50;;;6.55;;
32780;SDS011;19136;47.032;15.502;2023-04-25T03:22:55;7.75;;;5.30;;
32780;SDS011;19136;47.032;15.502;2023-04-25T03:25:24;11.80;;;5.22;;
32780;SDS011;19136;47.032;15.502;2023-04-25T03:27:50;11.80;;;4.70;;
32780;SDS011;19136;47.032;15.502;2023-04-25T03:30:16;14.25;;;4.85;;
32780;SDS011;19136;47.032;15.502;2023-04-25T03:32:43;8.13;;;4.53;;
32780;SDS011;19136;47.032;15.502;2023-04-25T03:35:09;9.80;;;4.20;;
32780;SDS011;19136;47.032;15.502;2023-04-25T03:37:35;9.25;;;4.85;;
32780;SDS011;19136;47.032;15.502;2023-04-25T03:40:01;6.93;;;4.40;;
32780;SDS011;19136;47.032;15.502;2023-04-25T03:42:44;6.03;;;4.03;;
32780;SDS011;19136;47.032;15.502;2023-04-25T03:45:11;15.85;;;5.80;;
32780;SDS011;19136;47.032;15.502;2023-04-25T03:47:36;8.10;;;4.32;;
32780;SDS011;19136;47.032;15.502;2023-04-25T03:50:02;16.13;;;5.28;;
32780;SDS011;19136;47.032;15.502;2023-04-25T03:52:28;19.00;;;5.10;;
32780;SDS011;19136;47.032;15.502;2023-04-25T03:54:54;15.13;;;5.50;;
32780;SDS011;19136;47.032;15.502;2023-04-25T03:57:22;13.75;;;5.25;;
32780;SDS011;19136;47.032;15.502;2023-04-25T03:59:48;17.70;;;6.15;;
32780;SDS011;19136;47.032;15.502;2023-04-25T04:02:14;13.73;;;5.05;;
32780;SDS011;19136;47.032;15.502;2023-04-25T04:04:40;28.20;;;5.70;;
32780;SDS011;19136;47.032;15.502;2023-04-25T04:07:06;44.67;;;7.70;;
32780;SDS011;19136;47.032;15.502;2023-04-25T04:09:36;28.92;;;7.30;;
32780;SDS011;19136;47.032;15.502;2023-04-25T04:12:06;18.00;;;6.70;;
32780;SDS011;19136;47.032;15.502;2023-04-25T04:14:33;20.92;;;5.88;;
32780;SDS011;19136;47.032;15.502;2023-04-25T04:16:58;16.77;;;5.78;;
32780;SDS011;19136;47.032;15.502;2023-04-25T04:19:25;18.85;;;6.25;;
32780;SDS011;19136;47.032;15.502;2023-04-25T04:22:23;18.02;;;6.18;;
32780;SDS011;19136;47.032;15.502;2023-04-25T04:24:51;43.50;;;7.28;;
32780;SDS011;19136;47.032;15.502;2023-04-25T04:27:31;169.32;;;10.88;;
32780;SDS011;19136;47.032;15.502;2023-04-25T04:30:18;52.17;;;6.43;;
32780;SDS011;19136;47.032;15.502;2023-04-25T04:32:54;236.82;;;11.10;;
32780;SDS011;19136;47.032;15.502;2023-04-25T04:35:21;142.90;;;11.57;;
32780;SDS011;19136;47.032;15.502;2023-04-25T04:37:47;31.33;;;8.82;;
32780;SDS011;19136;47.032;15.502;2023-04-25T04:40:16;32.30;;;5.82;;
32780;SDS011;19136;47.032;15.502;2023-04-25T04:42:49;61.53;;;6.70;;
32780;SDS011;19136;47.032;15.502;2023-04-25T04:45:25;78.13;;;6.38;;
32780;SDS011;19136;47.032;15.502;2023-04-25T04:48:09;22.95;;;5.75;;
32780;SDS011;19136;47.032;15.502;2023-04-25T04:50:45;109.05;;;9.85;;
32780;SDS011;19136;47.032;15.502;2023-04-25T04:53:23;23.92;;;7.38;;
32780;SDS011;19136;47.032;15.502;2023-04-25T04:56:07;23.08;;;7.20;;
32780;SDS011;19136;47.032;15.502;2023-04-25T04:59:08;33.55;;;8.93;;
32780;SDS011;19136;47.032;15.502;2023-04-25T05:01:53;37.30;;;8.68;;
32780;SDS011;19136;47.032;15.502;2023-04-25T05:04:44;117.68;;;9.43;;
32780;SDS011;19136;47.032;15.502;2023-04-25T05:07:36;29.98;;;7.28;;
32780;SDS011;19136;47.032;15.502;2023-04-25T05:10:09;73.00;;;7.80;;
32780;SDS011;19136;47.032;15.502;2023-04-25T05:12:54;57.03;;;7.15;;
32780;SDS011;19136;47.032;15.502;2023-04-25T05:15:51;52.55;;;6.75;;
32780;SDS011;19136;47.032;15.502;2023-04-25T05:18:37;18.55;;;6.90;;
32780;SDS011;19136;47.032;15.502;2023-04-25T05:21:22;15.98;;;6.50;;
32780;SDS011;19136;47.032;15.502;2023-04-25T05:24:04;18.42;;;6.53;;
32780;SDS011;19136;47.032;15.502;2023-04-25T05:27:05;51.90;;;7.20;;
32780;SDS011;19136;47.032;15.502;2023-04-25T05:29:57;19.23;;;7.57;;
32780;SDS011;19136;47.032;15.502;2023-04-25T05:32:27;13.38;;;7.15;;
32780;SDS011;19136;47.032;15.502;2023-04-25T05:34:56;83.13;;;9.05;;
32780;SDS011;19136;47.032;15.502;2023-04-25T05:37:25;17.85;;;7.38;;
32780;SDS011;19136;47.032;15.502;2023-04-25T05:39:58;32.72;;;9.07;;
32780;SDS011;19136;47.032;15.502;2023-04-25T05:42:44;37.20;;;7.45;;
32780;SDS011;19136;47.032;15.502;2023-04-25T05:45:24;14.90;;;6.00;;
32780;SDS011;19136;47.032;15.502;2023-04-25T05:48:10;31.15;;;7.68;;
32780;SDS011;19136;47.032;15.502;2023-04-25T05:50:56;30.73;;;6.78;;
32780;SDS011;19136;47.032;15.502;2023-04-25T05:53:42;11.75;;;6.15;;
32780;SDS011;19136;47.032;15.502;2023-04-25T05:56:08;19.92;;;6.28;;
32780;SDS011;19136;47.032;15.502;2023-04-25T05:58:33;14.48;;;7.03;;
32780;SDS011;19136;47.032;15.502;2023-04-25T06:00:59;18.17;;;6.93;;
32780;SDS011;19136;47.032;15.502;2023-04-25T06:03:25;35.42;;;8.15;;
32780;SDS011;19136;47.032;15.502;2023-04-25T06:05:51;11.55;;;5.78;;
32780;SDS011;19136;47.032;15.502;2023-04-25T06:08:18;17.33;;;7.78;;
32780;SDS011;19136;47.032;15.502;2023-04-25T06:10:44;12.88;;;6.65;;
32780;SDS011;19136;47.032;15.502;2023-04-25T06:13:10;13.48;;;7.38;;
32780;SDS011;19136;47.032;15.502;2023-04-25T06:15:36;17.48;;;8.82;;
32780;SDS011;19136;47.032;15.502;2023-04-25T06:18:02;14.65;;;7.05;;
32780;SDS011;19136;47.032;15.502;2023-04-25T06:20:27;16.55;;;7.78;;
32780;SDS011;19136;47.032;15.502;2023-04-25T06:22:56;14.50;;;7.00;;
32780;SDS011;19136;47.032;15.502;2023-04-25T06:25:34;18.90;;;7.03;;
32780;SDS011;19136;47.032;15.502;2023-04-25T06:28:00;13.32;;;6.72;;
32780;SDS011;19136;47.032;15.502;2023-04-25T06:30:26;12.10;;;5.63;;
32780;SDS011;19136;47.032;15.502;2023-04-25T06:32:57;10.05;;;5.70;;
32780;SDS011;19136;47.032;15.502;2023-04-25T06:35:23;11.07;;;5.95;;
32780;SDS011;19136;47.032;15.502;2023-04-25T06:37:49;9.93;;;6.43;;
32780;SDS011;19136;47.032;15.502;2023-04-25T06:40:18;9.52;;;6.05;;
32780;SDS011;19136;47.032;15.502;2023-04-25T06:42:43;13.45;;;6.25;;
32780;SDS011;19136;47.032;15.502;2023-04-25T06:45:30;11.52;;;5.75;;
32780;SDS011;19136;47.032;15.502;2023-04-25T06:47:58;13.60;;;5.70;;
32780;SDS011;19136;47.032;15.502;2023-04-25T06:50:27;15.25;;;6.00;;
32780;SDS011;19136;47.032;15.502;2023-04-25T06:52:53;11.05;;;5.95;;
32780;SDS011;19136;47.032;15.502;2023-04-25T06:55:19;11.10;;;6.10;;
32780;SDS011;19136;47.032;15.502;2023-04-25T06:58:14;37.63;;;7.82;;
32780;SDS011;19136;47.032;15.502;2023-04-25T07:01:06;79.43;;;13.38;;
32780;SDS011;19136;47.032;15.502;2023-04-25T07:03:32;16.73;;;6.28;;
32780;SDS011;19136;47.032;15.502;2023-04-25T07:06:02;31.15;;;6.43;;
32780;SDS011;19136;47.032;15.502;2023-04-25T07:08:28;30.75;;;7.13;;
32780;SDS011;19136;47.032;15.502;2023-04-25T07:10:56;69.53;;;10.45;;
32780;SDS011;19136;47.032;15.502;2023-04-25T07:13:22;11.40;;;4.03;;
32780;SDS011;19136;47.032;15.502;2023-04-25T07:15:47;9.02;;;3.53;;
32780;SDS011;19136;47.032;15.502;2023-04-25T07:18:15;12.50;;;4.05;;
32780;SDS011;19136;47.032;15.502;2023-04-25T07:20:41;10.98;;;3.75;;
32780;SDS011;19136;47.032;15.502;2023-04-25T07:23:06;7.88;;;3.67;;
32780;SDS011;19136;47.032;15.502;2023-04-25T07:25:32;10.10;;;3.58;;
32780;SDS011;19136;47.032;15.502;2023-04-25T07:27:59;5.85;;;2.53;;
32780;SDS011;19136;47.032;15.502;2023-04-25T07:30:25;10.45;;;3.05;;
32780;SDS011;19136;47.032;15.502;2023-04-25T07:32:51;4.57;;;2.42;;
32780;SDS011;19136;47.032;15.502;2023-04-25T07:35:17;6.65;;;2.67;;
32780;SDS011;19136;47.032;15.502;2023-04-25T07:37:43;6.15;;;2.60;;
32780;SDS011;19136;47.032;15.502;2023-04-25T07:40:17;4.88;;;2.28;;
32780;SDS011;19136;47.032;15.502;2023-04-25T07:42:47;5.80;;;2.08;;
32780;SDS011;19136;47.032;15.502;2023-04-25T07:45:16;4.57;;;2.30;;
32780;SDS011;19136;47.032;15.502;2023-04-25T07:47:42;5.10;;;2.25;;
32780;SDS011;19136;47.032;15.502;2023-04-25T07:50:08;8.25;;;2.85;;
32780;SDS011;19136;47.032;15.502;2023-04-25T07:52:35;6.65;;;2.70;;
32780;SDS011;19136;47.032;15.502;2023-04-25T07:55:11;5.00;;;2.22;;
32780;SDS011;19136;47.032;15.502;2023-04-25T07:57:49;5.03;;;2.40;;
32780;SDS011;19136;47.032;15.502;2023-04-25T08:00:15;6.65;;;2.15;;
32780;SDS011;19136;47.032;15.502;2023-04-25T08:02:47;3.95;;;2.00;;
32780;SDS011;19136;47.032;15.502;2023-04-25T08:05:15;4.05;;;1.58;;
32780;SDS011;19136;47.032;15.502;2023-04-25T08:07:44;1.23;;;0.90;;
32780;SDS011;19136;47.032;15.502;2023-04-25T08:10:10;6.00;;;1.33;;
32780;SDS011;19136;47.032;15.502;2023-04-25T08:12:36;5.18;;;1.40;;
32780;SDS011;19136;47.032;15.502;2023-04-25T08:15:02;2.00;;;1.00;;
32780;SDS011;19136;47.032;15.502;2023-04-25T08:17:32;2.63;;;0.88;;
32780;SDS011;19136;47.032;15.502;2023-04-25T08:20:01;2.08;;;0.85;;
32780;SDS011;19136;47.032;15.502;2023-04-25T08:22:31;1.85;;;0.95;;
32780;SDS011;19136;47.032;15.502;2023-04-25T08:25:14;1.98;;;1.10;;
32780;SDS011;19136;47.032;15.502;2023-04-25T08:27:40;2.67;;;1.17;;
32780;SDS011;19136;47.032;15.502;2023-04-25T08:30:06;7.80;;;1.00;;
32780;SDS011;19136;47.032;15.502;2023-04-25T08:32:34;4.65;;;0.95;;
32780;SDS011;19136;47.032;15.502;2023-04-25T08:35:18;2.10;;;0.82;;
32780;SDS011;19136;47.032;15.502;2023-04-25T08:37:46;2.85;;;0.95;;
32780;SDS011;19136;47.032;15.502;2023-04-25T08:40:14;3.42;;;0.95;;
32780;SDS011;19136;47.032;15.502;2023-04-25T08:42:59;2.83;;;1.05;;
32780;SDS011;19136;47.032;15.502;2023-04-25T08:45:27;2.40;;;1.17;;
32780;SDS011;19136;47.032;15.502;2023-04-25T08:47:53;9.52;;;1.25;;
32780;SDS011;19136;47.032;15.502;2023-04-25T08:50:20;5.40;;;1.75;;
32780;SDS011;19136;47.032;15.502;2023-04-25T08:52:48;1.17;;;0.80;;
32780;SDS011;19136;47.032;15.502;2023-04-25T08:55:17;2.03;;;1.10;;
32780;SDS011;19136;47.032;15.502;2023-04-25T08:57:44;3.45;;;1.02;;
32780;SDS011;19136;47.032;15.502;2023-04-25T09:00:10;6.13;;;1.15;;
32780;SDS011;19136;47.032;15.502;2023-04-25T09:02:39;3.67;;;1.27;;
32780;SDS011;19136;47.032;15.502;2023-04-25T09:05:06;4.95;;;1.00;;
32780;SDS011;19136;47.032;15.502;2023-04-25T09:07:35;2.10;;;1.20;;
32780;SDS011;19136;47.032;15.502;2023-04-25T09:10:00;3.92;;;1.23;;
32780;SDS011;19136;47.032;15.502;2023-04-25T09:12:29;3.50;;;1.13;;
32780;SDS011;19136;47.032;15.502;2023-04-25T09:15:09;5.78;;;0.90;;
32780;SDS011;19136;47.032;15.502;2023-04-25T09:17:45;2.60;;;1.42;;
32780;SDS011;19136;47.032;15.502;2023-04-25T09:20:12;3.50;;;1.20;;
32780;SDS011;19136;47.032;15.502;2023-04-25T09:22:39;2.30;;;0.88;;
32780;SDS011;19136;47.032;15.502;2023-04-25T09:25:08;4.78;;;1.08;;
32780;SDS011;19136;47.032;15.502;2023-04-25T09:27:37;2.00;;;1.00;;
32780;SDS011;19136;47.032;15.502;2023-04-25T09:30:19;6.78;;;1.35;;
32780;SDS011;19136;47.032;15.502;2023-04-25T09:33:05;2.50;;;1.15;;
32780;SDS011;19136;47.032;15.502;2023-04-25T09:35:42;3.33;;;1.02;;
32780;SDS011;19136;47.032;15.502;2023-04-25T09:38:15;2.67;;;1.10;;
32780;SDS011;19136;47.032;15.502;2023-04-25T09:40:52;4.80;;;1.35;;
32780;SDS011;19136;47.032;15.502;2023-04-25T09:43:31;5.82;;;1.00;;
32780;SDS011;19136;47.032;15.502;2023-04-25T09:45:57;2.45;;;0.90;;
32780;SDS011;19136;47.032;15.502;2023-04-25T09:48:27;3.95;;;1.10;;
32780;SDS011;19136;47.032;15.502;2023-04-25T09:51:05;2.30;;;0.90;;
32780;SDS011;19136;47.032;15.502;2023-04-25T09:53:41;3.47;;;0.90;;
32780;SDS011;19136;47.032;15.502;2023-04-25T09:56:22;5.97;;;0.85;;
32780;SDS011;19136;47.032;15.502;2023-04-25T09:58:48;2.30;;;1.00;;
32780;SDS011;19136;47.032;15.502;2023-04-25T10:01:15;4.05;;;0.82;;
32780;SDS011;19136;47.032;15.502;2023-04-25T10:03:55;2.78;;;0.98;;
32780;SDS011;19136;47.032;15.502;2023-04-25T10:06:36;2.65;;;0.93;;
32780;SDS011;19136;47.032;15.502;2023-04-25T10:09:02;6.75;;;2.17;;
32780;SDS011;19136;47.032;15.502;2023-04-25T10:11:29;1.08;;;0.70;;
32780;SDS011;19136;47.032;15.502;2023-04-25T10:13:56;1.98;;;0.70;;
32780;SDS011;19136;47.032;15.502;2023-04-25T10:16:21;7.68;;;0.90;;
32780;SDS011;19136;47.032;15.502;2023-04-25T10:18:47;9.10;;;1.00;;
32780;SDS011;19136;47.032;15.502;2023-04-25T10:21:13;5.50;;;1.30;;
32780;SDS011;19136;47.032;15.502;2023-04-25T10:23:40;1.98;;;0.93;;
32780;SDS011;19136;47.032;15.502;2023-04-25T10:26:06;2.40;;;1.02;;
32780;SDS011;19136;47.032;15.502;2023-04-25T10:31:24;3.95;;;0.90;;
32780;SDS011;19136;47.032;15.502;2023-04-25T10:33:50;5.20;;;1.33;;
32780;SDS011;19136;47.032;15.502;2023-04-25T10:36:20;4.13;;;1.15;;
32780;SDS011;19136;47.032;15.502;2023-04-25T10:38:47;2.30;;;1.05;;
32780;SDS011;19136;47.032;15.502;2023-04-25T10:41:13;2.53;;;1.00;;
32780;SDS011;19136;47.032;15.502;2023-04-25T10:43:40;1.25;;;0.73;;
32780;SDS011;19136;47.032;15.502;2023-04-25T10:48:38;6.07;;;1.30;;
32780;SDS011;19136;47.032;15.502;2023-04-25T10:51:11;2.78;;;1.42;;
32780;SDS011;19136;47.032;15.502;2023-04-25T10:53:41;2.25;;;0.80;;
32780;SDS011;19136;47.032;15.502;2023-04-25T10:56:10;4.68;;;1.02;;
32780;SDS011;19136;47.032;15.502;2023-04-25T10:58:41;3.67;;;0.90;;
32780;SDS011;19136;47.032;15.502;2023-04-25T11:01:08;3.05;;;1.00;;
32780;SDS011;19136;47.032;15.502;2023-04-25T11:03:37;1.33;;;0.70;;
32780;SDS011;19136;47.032;15.502;2023-04-25T11:06:05;1.75;;;1.05;;
32780;SDS011;19136;47.032;15.502;2023-04-25T11:08:36;2.47;;;0.75;;
32780;SDS011;19136;47.032;15.502;2023-04-25T11:11:13;2.63;;;0.80;;
32780;SDS011;19136;47.032;15.502;2023-04-25T11:13:38;4.13;;;0.80;;
32780;SDS011;19136;47.032;15.502;2023-04-25T11:16:06;4.72;;;1.10;;
32780;SDS011;19136;47.032;15.502;2023-04-25T11:18:33;1.15;;;0.90;;
32780;SDS011;19136;47.032;15.502;2023-04-25T11:20:59;4.85;;;1.10;;
32780;SDS011;19136;47.032;15.502;2023-04-25T11:23:25;6.00;;;0.98;;
32780;SDS011;19136;47.032;15.502;2023-04-25T11:25:52;2.58;;;0.95;;
32780;SDS011;19136;47.032;15.502;2023-04-25T11:28:21;1.63;;;0.80;;
32780;SDS011;19136;47.032;15.502;2023-04-25T11:30:50;3.13;;;1.27;;
32780;SDS011;19136;47.032;15.502;2023-04-25T11:33:15;3.40;;;1.00;;
32780;SDS011;19136;47.032;15.502;2023-04-25T11:35:42;3.28;;;0.90;;
32780;SDS011;19136;47.032;15.502;2023-04-25T11:38:07;2.80;;;1.00;;
32780;SDS011;19136;47.032;15.502;2023-04-25T11:40:34;7.13;;;1.30;;
32780;SDS011;19136;47.032;15.502;2023-04-25T11:43:01;3.10;;;1.17;;
32780;SDS011;19136;47.032;15.502;2023-04-25T11:45:27;7.57;;;1.00;;
32780;SDS011;19136;47.032;15.502;2023-04-25T11:47:52;4.13;;;1.10;;
32780;SDS011;19136;47.032;15.502;2023-04-25T11:50:18;2.88;;;1.00;;
32780;SDS011;19136;47.032;15.502;2023-04-25T11:52:44;2.63;;;1.00;;
32780;SDS011;19136;47.032;15.502;2023-04-25T11:55:15;3.40;;;0.80;;
32780;SDS011;19136;47.032;15.502;2023-04-25T11:57:46;7.38;;;2.38;;
32780;SDS011;19136;47.032;15.502;2023-04-25T12:00:17;2.20;;;1.20;;
32780;SDS011;19136;47.032;15.502;2023-04-25T12:02:46;4.13;;;0.95;;
32780;SDS011;19136;47.032;15.502;2023-04-25T12:05:13;4.85;;;1.05;;
32780;SDS011;19136;47.032;15.502;2023-04-25T12:07:40;2.35;;;0.88;;
32780;SDS011;19136;47.032;15.502;2023-04-25T12:12:40;2.43;;;0.90;;
32780;SDS011;19136;47.032;15.502;2023-04-25T12:18:02;1.63;;;0.70;;
32780;SDS011;19136;47.032;15.502;2023-04-25T12:20:28;3.03;;;0.80;;
32780;SDS011;19136;47.032;15.502;2023-04-25T12:22:53;2.40;;;0.73;;
32780;SDS011;19136;47.032;15.502;2023-04-25T12:28:10;6.05;;;1.10;;
32780;SDS011;19136;47.032;15.502;2023-04-25T12:30:56;4.20;;;0.85;;
32780;SDS011;19136;47.032;15.502;2023-04-25T12:33:26;4.43;;;1.10;;
32780;SDS011;19136;47.032;15.502;2023-04-25T12:35:53;3.17;;;1.73;;
32780;SDS011;19136;47.032;15.502;2023-04-25T12:38:24;4.65;;;0.90;;
32780;SDS011;19136;47.032;15.502;2023-04-25T12:40:51;4.63;;;0.90;;
32780;SDS011;19136;47.032;15.502;2023-04-25T12:43:17;4.18;;;1.13;;
32780;SDS011;19136;47.032;15.502;2023-04-25T12:45:43;2.72;;;0.90;;
32780;SDS011;19136;47.032;15.502;2023-04-25T12:48:10;4.70;;;0.98;;
32780;SDS011;19136;47.032;15.502;2023-04-25T12:50:35;7.65;;;1.35;;
32780;SDS011;19136;47.032;15.502;2023-04-25T12:53:01;2.42;;;0.90;;
32780;SDS011;19136;47.032;15.502;2023-04-25T12:55:26;5.80;;;1.15;;
32780;SDS011;19136;47.032;15.502;2023-04-25T12:57:52;3.70;;;1.02;;
32780;SDS011;19136;47.032;15.502;2023-04-25T13:00:18;2.03;;;0.80;;
32780;SDS011;19136;47.032;15.502;2023-04-25T13:02:45;12.05;;;1.10;;
32780;SDS011;19136;47.032;15.502;2023-04-25T13:05:12;3.88;;;0.90;;
32780;SDS011;19136;47.032;15.502;2023-04-25T13:07:38;1.95;;;0.80;;
32780;SDS011;19136;47.032;15.502;2023-04-25T13:10:04;2.15;;;1.08;;
32780;SDS011;19136;47.032;15.502;2023-04-25T13:12:30;3.90;;;1.00;;
32780;SDS011;19136;47.032;15.502;2023-04-25T13:14:56;7.47;;;0.93;;
32780;SDS011;19136;47.032;15.502;2023-04-25T13:17:22;2.38;;;1.10;;
32780;SDS011;19136;47.032;15.502;2023-04-25T13:19:48;3.90;;;0.77;;
32780;SDS011;19136;47.032;15.502;2023-04-25T13:22:13;0.80;;;0.63;;
32780;SDS011;19136;47.032;15.502;2023-04-25T13:24:41;2.35;;;1.00;;
32780;SDS011;19136;47.032;15.502;2023-04-25T13:27:08;3.20;;;1.02;;
32780;SDS011;19136;47.032;15.502;2023-04-25T13:29:33;1.42;;;0.75;;
32780;SDS011;19136;47.032;15.502;2023-04-25T13:32:03;2.35;;;0.75;;
32780;SDS011;19136;47.032;15.502;2023-04-25T13:34:30;2.33;;;0.90;;
32780;SDS011;19136;47.032;15.502;2023-04-25T13:36:56;1.60;;;0.70;;
32780;SDS011;19136;47.032;15.502;2023-04-25T13:39:22;1.23;;;0.80;;
32780;SDS011;19136;47.032;15.502;2023-04-25T13:41:48;2.72;;;0.90;;
32780;SDS011;19136;47.032;15.502;2023-04-25T13:44:13;5.85;;;1.02;;
32780;SDS011;19136;47.032;15.502;2023-04-25T13:46:39;3.10;;;1.20;;
32780;SDS011;19136;47.032;15.502;2023-04-25T13:49:05;1.80;;;0.88;;
32780;SDS011;19136;47.032;15.502;2023-04-25T13:51:31;2.00;;;0.93;;
32780;SDS011;19136;47.032;15.502;2023-04-25T13:53:56;6.57;;;1.00;;
32780;SDS011;19136;47.032;15.502;2023-04-25T13:56:22;2.10;;;1.00;;
32780;SDS011;19136;47.032;15.502;2023-04-25T13:58:49;0.90;;;0.70;;
32780;SDS011;19136;47.032;15.502;2023-04-25T14:01:16;2.35;;;0.88;;
32780;SDS011;19136;47.032;15.502;2023-04-25T14:03:42;4.07;;;1.00;;
32780;SDS011;19136;47.032;15.502;2023-04-25T14:06:07;3.80;;;0.80;;
32780;SDS011;19136;47.032;15.502;2023-04-25T14:08:33;2.47;;;0.80;;
32780;SDS011;19136;47.032;15.502;2023-04-25T14:11:00;1.77;;;0.82;;
32780;SDS011;19136;47.032;15.502;2023-04-25T14:13:26;1.98;;;0.75;;
32780;SDS011;19136;47.032;15.502;2023-04-25T14:15:51;5.80;;;1.00;;
32780;SDS011;19136;47.032;15.502;2023-04-25T14:18:20;2.05;;;0.85;;
32780;SDS011;19136;47.032;15.502;2023-04-25T14:20:45;5.32;;;1.15;;
32780;SDS011;19136;47.032;15.502;2023-04-25T14:23:11;4.50;;;0.98;;
32780;SDS011;19136;47.032;15.502;2023-04-25T14:25:37;3.45;;;0.90;;
32780;SDS011;19136;47.032;15.502;2023-04-25T14:28:03;5.85;;;1.23;;
32780;SDS011;19136;47.032;15.502;2023-04-25T14:30:28;2.08;;;0.90;;
32780;SDS011;19136;47.032;15.502;2023-04-25T14:32:54;2.33;;;0.90;;
32780;SDS011;19136;47.032;15.502;2023-04-25T14:35:20;3.60;;;0.95;;
32780;SDS011;19136;47.032;15.502;2023-04-25T14:37:46;23.30;;;1.48;;
32780;SDS011;19136;47.032;15.502;2023-04-25T14:40:12;14.85;;;1.17;;
32780;SDS011;19136;47.032;15.502;2023-04-25T14:42:39;3.67;;;0.82;;
32780;SDS011;19136;47.032;15.502;2023-04-25T14:45:05;1.65;;;0.73;;
32780;SDS011;19136;47.032;15.502;2023-04-25T14:47:35;7.47;;;1.10;;
32780;SDS011;19136;47.032;15.502;2023-04-25T14:50:01;2.85;;;1.08;;
32780;SDS011;19136;47.032;15.502;2023-04-25T14:52:27;4.13;;;1.60;;
32780;SDS011;19136;47.032;15.502;2023-04-25T14:54:53;10.90;;;1.40;;